sensor_id;sensor_type;location;lat;lon;timestamp;P1;durP1;ratioP1;P2;durP2;ratioP2
14516;SDS011;7344;50.864;4.362;2022-08-01T00:00:36;2.08;;;1.90;;
14516;SDS011;7344;50.864;4.362;2022-08-01T00:03:02;3.65;;;2.30;;
14516;SDS011;7344;50.864;4.362;2022-08-01T00:05:27;3.08;;;2.50;;
14516;SDS011;7344;50.864;4.362;2022-08-01T00:07:53;3.47;;;2.50;;
14516;SDS011;7344;50.864;4.362;2022-08-01T00:10:19;5.13;;;2.67;;
14516;SDS011;7344;50.864;4.362;2022-08-01T00:12:45;4.53;;;3.17;;
14516;SDS011;7344;50.864;4.362;2022-08-01T00:15:12;3.15;;;2.80;;
14516;SDS011;7344;50.864;4.362;2022-08-01T00:17:39;4.38;;;2.78;;
14516;SDS011;7344;50.864;4.362;2022-08-01T00:20:06;3.63;;;3.00;;
14516;SDS011;7344;50.864;4.362;2022-08-01T00:22:33;4.53;;;3.17;;
14516;SDS011;7344;50.864;4.362;2022-08-01T00:24:59;3.83;;;3.00;;
14516;SDS011;7344;50.864;4.362;2022-08-01T00:27:25;4.30;;;3.55;;
14516;SDS011;7344;50.864;4.362;2022-08-01T00:29:51;6.88;;;3.95;;
14516;SDS011;7344;50.864;4.362;2022-08-01T00:32:17;5.70;;;3.97;;
14516;SDS011;7344;50.864;4.362;2022-08-01T00:34:42;6.93;;;3.90;;
14516;SDS011;7344;50.864;4.362;2022-08-01T00:37:08;6.25;;;4.03;;
14516;SDS011;7344;50.864;4.362;2022-08-01T00:39:34;5.65;;;5.15;;
14516;SDS011;7344;50.864;4.362;2022-08-01T00:42:00;4.35;;;3.95;;
14516;SDS011;7344;50.864;4.362;2022-08-01T00:44:30;4.82;;;3.88;;
14516;SDS011;7344;50.864;4.362;2022-08-01T00:46:56;4.75;;;3.90;;
14516;SDS011;7344;50.864;4.362;2022-08-01T00:49:21;4.25;;;3.40;;
14516;SDS011;7344;50.864;4.362;2022-08-01T00:51:47;5.28;;;3.47;;
14516;SDS011;7344;50.864;4.362;2022-08-01T00:54:13;4.85;;;3.33;;
14516;SDS011;7344;50.864;4.362;2022-08-01T00:56:39;5.00;;;3.85;;
14516;SDS011;7344;50.864;4.362;2022-08-01T00:59:06;4.35;;;3.30;;
14516;SDS011;7344;50.864;4.362;2022-08-01T01:01:32;4.45;;;3.33;;
14516;SDS011;7344;50.864;4.362;2022-08-01T01:03:59;3.35;;;2.90;;
14516;SDS011;7344;50.864;4.362;2022-08-01T01:09:24;4.68;;;3.35;;
14516;SDS011;7344;50.864;4.362;2022-08-01T01:12:12;4.25;;;3.30;;
14516;SDS011;7344;50.864;4.362;2022-08-01T01:14:42;3.78;;;3.47;;
14516;SDS011;7344;50.864;4.362;2022-08-01T01:17:16;6.85;;;3.70;;
14516;SDS011;7344;50.864;4.362;2022-08-01T01:19:47;5.05;;;4.20;;
14516;SDS011;7344;50.864;4.362;2022-08-01T01:31:11;7.63;;;4.90;;
14516;SDS011;7344;50.864;4.362;2022-08-01T01:33:39;5.20;;;4.70;;
14516;SDS011;7344;50.864;4.362;2022-08-01T01:36:08;8.00;;;5.07;;
14516;SDS011;7344;50.864;4.362;2022-08-01T01:38:37;7.38;;;5.47;;
14516;SDS011;7344;50.864;4.362;2022-08-01T01:41:07;7.57;;;5.85;;
14516;SDS011;7344;50.864;4.362;2022-08-01T01:43:35;6.53;;;5.93;;
14516;SDS011;7344;50.864;4.362;2022-08-01T01:46:02;7.28;;;6.47;;
14516;SDS011;7344;50.864;4.362;2022-08-01T01:48:29;7.88;;;7.07;;
14516;SDS011;7344;50.864;4.362;2022-08-01T01:50:56;10.05;;;8.27;;
14516;SDS011;7344;50.864;4.362;2022-08-01T01:53:22;11.45;;;8.77;;
14516;SDS011;7344;50.864;4.362;2022-08-01T01:55:50;18.65;;;11.10;;
14516;SDS011;7344;50.864;4.362;2022-08-01T01:58:19;14.93;;;10.32;;
14516;SDS011;7344;50.864;4.362;2022-08-01T02:00:46;14.93;;;10.07;;
14516;SDS011;7344;50.864;4.362;2022-08-01T02:03:14;14.23;;;10.32;;
14516;SDS011;7344;50.864;4.362;2022-08-01T02:05:41;13.68;;;9.65;;
14516;SDS011;7344;50.864;4.362;2022-08-01T02:08:07;16.08;;;10.85;;
14516;SDS011;7344;50.864;4.362;2022-08-01T02:10:36;19.05;;;10.48;;
14516;SDS011;7344;50.864;4.362;2022-08-01T02:13:04;15.77;;;10.25;;
14516;SDS011;7344;50.864;4.362;2022-08-01T02:15:31;13.20;;;9.70;;
14516;SDS011;7344;50.864;4.362;2022-08-01T02:17:58;17.38;;;9.88;;
14516;SDS011;7344;50.864;4.362;2022-08-01T02:20:27;17.17;;;10.10;;
14516;SDS011;7344;50.864;4.362;2022-08-01T02:23:08;14.50;;;9.60;;
14516;SDS011;7344;50.864;4.362;2022-08-01T02:25:44;14.98;;;10.15;;
14516;SDS011;7344;50.864;4.362;2022-08-01T02:28:13;16.92;;;10.15;;
14516;SDS011;7344;50.864;4.362;2022-08-01T02:30:46;16.65;;;9.40;;
14516;SDS011;7344;50.864;4.362;2022-08-01T02:33:20;14.82;;;9.70;;
14516;SDS011;7344;50.864;4.362;2022-08-01T02:35:54;19.13;;;10.93;;
14516;SDS011;7344;50.864;4.362;2022-08-01T02:38:24;17.10;;;10.48;;
14516;SDS011;7344;50.864;4.362;2022-08-01T02:40:52;18.35;;;10.88;;
14516;SDS011;7344;50.864;4.362;2022-08-01T02:43:20;15.30;;;10.57;;
14516;SDS011;7344;50.864;4.362;2022-08-01T02:45:52;20.38;;;10.57;;
14516;SDS011;7344;50.864;4.362;2022-08-01T02:48:20;16.75;;;10.88;;
14516;SDS011;7344;50.864;4.362;2022-08-01T02:50:48;16.42;;;10.50;;
14516;SDS011;7344;50.864;4.362;2022-08-01T02:53:16;15.23;;;10.45;;
14516;SDS011;7344;50.864;4.362;2022-08-01T02:55:45;15.40;;;10.50;;
14516;SDS011;7344;50.864;4.362;2022-08-01T02:58:12;17.98;;;11.35;;
14516;SDS011;7344;50.864;4.362;2022-08-01T03:00:42;23.10;;;11.38;;
14516;SDS011;7344;50.864;4.362;2022-08-01T03:03:10;18.15;;;11.02;;
14516;SDS011;7344;50.864;4.362;2022-08-01T03:05:36;17.33;;;10.18;;
14516;SDS011;7344;50.864;4.362;2022-08-01T03:08:05;20.40;;;11.25;;
14516;SDS011;7344;50.864;4.362;2022-08-01T03:10:32;17.17;;;11.00;;
14516;SDS011;7344;50.864;4.362;2022-08-01T03:13:00;16.88;;;10.07;;
14516;SDS011;7344;50.864;4.362;2022-08-01T03:15:27;19.77;;;11.85;;
14516;SDS011;7344;50.864;4.362;2022-08-01T03:17:57;17.85;;;10.65;;
14516;SDS011;7344;50.864;4.362;2022-08-01T03:20:25;18.48;;;10.68;;
14516;SDS011;7344;50.864;4.362;2022-08-01T03:22:53;15.73;;;10.50;;
14516;SDS011;7344;50.864;4.362;2022-08-01T03:25:21;15.15;;;10.15;;
14516;SDS011;7344;50.864;4.362;2022-08-01T03:27:50;19.92;;;10.98;;
14516;SDS011;7344;50.864;4.362;2022-08-01T03:30:19;17.63;;;10.95;;
14516;SDS011;7344;50.864;4.362;2022-08-01T03:32:47;18.27;;;11.40;;
14516;SDS011;7344;50.864;4.362;2022-08-01T03:35:13;19.80;;;12.10;;
14516;SDS011;7344;50.864;4.362;2022-08-01T03:37:41;21.38;;;10.98;;
14516;SDS011;7344;50.864;4.362;2022-08-01T03:40:11;18.75;;;11.27;;
14516;SDS011;7344;50.864;4.362;2022-08-01T03:42:46;15.20;;;10.13;;
14516;SDS011;7344;50.864;4.362;2022-08-01T03:45:49;20.35;;;11.48;;
14516;SDS011;7344;50.864;4.362;2022-08-01T03:48:09;17.98;;;11.23;;
14516;SDS011;7344;50.864;4.362;2022-08-01T03:50:42;15.68;;;11.90;;
14516;SDS011;7344;50.864;4.362;2022-08-01T03:53:11;20.35;;;12.63;;
14516;SDS011;7344;50.864;4.362;2022-08-01T03:55:38;22.90;;;12.75;;
14516;SDS011;7344;50.864;4.362;2022-08-01T03:58:06;21.70;;;12.85;;
14516;SDS011;7344;50.864;4.362;2022-08-01T04:00:33;18.60;;;13.00;;
14516;SDS011;7344;50.864;4.362;2022-08-01T04:03:04;19.55;;;13.13;;
14516;SDS011;7344;50.864;4.362;2022-08-01T04:05:31;20.67;;;14.63;;
14516;SDS011;7344;50.864;4.362;2022-08-01T04:07:57;22.85;;;14.20;;
14516;SDS011;7344;50.864;4.362;2022-08-01T04:10:24;23.92;;;14.73;;
14516;SDS011;7344;50.864;4.362;2022-08-01T04:12:50;20.38;;;14.60;;
14516;SDS011;7344;50.864;4.362;2022-08-01T04:15:16;25.52;;;16.00;;
14516;SDS011;7344;50.864;4.362;2022-08-01T04:17:43;22.13;;;15.00;;
14516;SDS011;7344;50.864;4.362;2022-08-01T04:20:09;23.13;;;15.93;;
14516;SDS011;7344;50.864;4.362;2022-08-01T04:22:36;22.90;;;15.82;;
14516;SDS011;7344;50.864;4.362;2022-08-01T04:25:02;21.60;;;15.43;;
14516;SDS011;7344;50.864;4.362;2022-08-01T04:27:35;22.65;;;15.65;;
14516;SDS011;7344;50.864;4.362;2022-08-01T04:30:04;23.52;;;14.85;;
14516;SDS011;7344;50.864;4.362;2022-08-01T04:32:31;24.50;;;16.40;;
14516;SDS011;7344;50.864;4.362;2022-08-01T04:35:00;31.50;;;15.30;;
14516;SDS011;7344;50.864;4.362;2022-08-01T04:37:29;21.75;;;14.40;;
14516;SDS011;7344;50.864;4.362;2022-08-01T04:39:56;20.65;;;14.23;;
14516;SDS011;7344;50.864;4.362;2022-08-01T04:42:22;19.60;;;14.77;;
14516;SDS011;7344;50.864;4.362;2022-08-01T04:44:48;17.17;;;13.75;;
14516;SDS011;7344;50.864;4.362;2022-08-01T04:47:14;22.33;;;15.07;;
14516;SDS011;7344;50.864;4.362;2022-08-01T04:49:40;20.90;;;14.38;;
14516;SDS011;7344;50.864;4.362;2022-08-01T04:52:06;21.58;;;14.73;;
14516;SDS011;7344;50.864;4.362;2022-08-01T04:54:33;17.77;;;14.25;;
14516;SDS011;7344;50.864;4.362;2022-08-01T04:57:02;18.58;;;13.52;;
14516;SDS011;7344;50.864;4.362;2022-08-01T04:59:29;18.83;;;14.88;;
14516;SDS011;7344;50.864;4.362;2022-08-01T05:02:04;22.83;;;14.55;;
14516;SDS011;7344;50.864;4.362;2022-08-01T05:04:31;16.63;;;13.25;;
14516;SDS011;7344;50.864;4.362;2022-08-01T05:06:57;17.83;;;13.40;;
14516;SDS011;7344;50.864;4.362;2022-08-01T05:09:22;19.77;;;13.15;;
14516;SDS011;7344;50.864;4.362;2022-08-01T05:11:48;18.52;;;13.13;;
14516;SDS011;7344;50.864;4.362;2022-08-01T05:14:13;15.75;;;12.02;;
14516;SDS011;7344;50.864;4.362;2022-08-01T05:16:39;17.42;;;12.38;;
14516;SDS011;7344;50.864;4.362;2022-08-01T05:19:06;18.23;;;12.38;;
14516;SDS011;7344;50.864;4.362;2022-08-01T05:21:33;13.68;;;11.90;;
14516;SDS011;7344;50.864;4.362;2022-08-01T05:23:59;15.65;;;11.43;;
14516;SDS011;7344;50.864;4.362;2022-08-01T05:26:24;20.13;;;11.90;;
14516;SDS011;7344;50.864;4.362;2022-08-01T05:28:50;15.05;;;11.13;;
14516;SDS011;7344;50.864;4.362;2022-08-01T05:31:15;15.02;;;11.07;;
14516;SDS011;7344;50.864;4.362;2022-08-01T05:33:41;11.82;;;10.10;;
14516;SDS011;7344;50.864;4.362;2022-08-01T05:36:07;10.52;;;9.40;;
14516;SDS011;7344;50.864;4.362;2022-08-01T05:38:32;9.80;;;8.80;;
14516;SDS011;7344;50.864;4.362;2022-08-01T05:40:58;10.18;;;9.07;;
14516;SDS011;7344;50.864;4.362;2022-08-01T05:43:24;14.20;;;9.38;;
14516;SDS011;7344;50.864;4.362;2022-08-01T05:45:49;11.77;;;8.13;;
14516;SDS011;7344;50.864;4.362;2022-08-01T05:48:15;9.45;;;8.50;;
14516;SDS011;7344;50.864;4.362;2022-08-01T05:50:41;9.45;;;8.52;;
14516;SDS011;7344;50.864;4.362;2022-08-01T05:53:07;9.93;;;8.82;;
14516;SDS011;7344;50.864;4.362;2022-08-01T05:55:32;11.65;;;7.65;;
14516;SDS011;7344;50.864;4.362;2022-08-01T05:57:59;8.25;;;7.07;;
14516;SDS011;7344;50.864;4.362;2022-08-01T06:00:25;11.60;;;7.18;;
14516;SDS011;7344;50.864;4.362;2022-08-01T06:02:50;10.57;;;7.18;;
14516;SDS011;7344;50.864;4.362;2022-08-01T06:05:16;8.45;;;6.72;;
14516;SDS011;7344;50.864;4.362;2022-08-01T06:07:42;9.23;;;7.00;;
14516;SDS011;7344;50.864;4.362;2022-08-01T06:10:07;7.60;;;6.65;;
14516;SDS011;7344;50.864;4.362;2022-08-01T06:12:33;8.82;;;7.22;;
14516;SDS011;7344;50.864;4.362;2022-08-01T06:14:59;9.35;;;6.35;;
14516;SDS011;7344;50.864;4.362;2022-08-01T06:17:25;8.30;;;6.53;;
14516;SDS011;7344;50.864;4.362;2022-08-01T06:19:50;7.13;;;6.35;;
14516;SDS011;7344;50.864;4.362;2022-08-01T06:22:16;9.15;;;6.70;;
14516;SDS011;7344;50.864;4.362;2022-08-01T06:24:41;6.70;;;5.88;;
14516;SDS011;7344;50.864;4.362;2022-08-01T06:27:07;9.00;;;6.75;;
14516;SDS011;7344;50.864;4.362;2022-08-01T06:29:32;7.45;;;6.00;;
14516;SDS011;7344;50.864;4.362;2022-08-01T06:31:59;7.20;;;5.35;;
14516;SDS011;7344;50.864;4.362;2022-08-01T06:34:25;9.10;;;5.88;;
14516;SDS011;7344;50.864;4.362;2022-08-01T06:36:51;9.80;;;5.20;;
14516;SDS011;7344;50.864;4.362;2022-08-01T06:39:16;6.80;;;5.03;;
14516;SDS011;7344;50.864;4.362;2022-08-01T06:41:42;5.65;;;5.05;;
14516;SDS011;7344;50.864;4.362;2022-08-01T06:44:10;5.82;;;5.28;;
14516;SDS011;7344;50.864;4.362;2022-08-01T06:46:36;7.43;;;5.60;;
14516;SDS011;7344;50.864;4.362;2022-08-01T06:49:02;4.85;;;4.10;;
14516;SDS011;7344;50.864;4.362;2022-08-01T06:51:28;5.70;;;4.13;;
14516;SDS011;7344;50.864;4.362;2022-08-01T06:53:54;4.47;;;4.13;;
14516;SDS011;7344;50.864;4.362;2022-08-01T06:56:20;4.45;;;3.60;;
14516;SDS011;7344;50.864;4.362;2022-08-01T06:58:45;5.47;;;4.03;;
14516;SDS011;7344;50.864;4.362;2022-08-01T07:01:11;4.53;;;4.10;;
14516;SDS011;7344;50.864;4.362;2022-08-01T07:03:37;3.55;;;3.25;;
14516;SDS011;7344;50.864;4.362;2022-08-01T07:06:03;3.88;;;3.60;;
14516;SDS011;7344;50.864;4.362;2022-08-01T07:08:29;4.30;;;3.05;;
14516;SDS011;7344;50.864;4.362;2022-08-01T07:10:54;3.78;;;3.42;;
14516;SDS011;7344;50.864;4.362;2022-08-01T07:13:24;3.53;;;3.30;;
14516;SDS011;7344;50.864;4.362;2022-08-01T07:15:51;3.50;;;3.20;;
14516;SDS011;7344;50.864;4.362;2022-08-01T07:18:17;4.65;;;3.40;;
14516;SDS011;7344;50.864;4.362;2022-08-01T07:20:43;3.60;;;3.40;;
14516;SDS011;7344;50.864;4.362;2022-08-01T07:23:11;4.53;;;3.40;;
14516;SDS011;7344;50.864;4.362;2022-08-01T07:25:37;3.67;;;3.28;;
14516;SDS011;7344;50.864;4.362;2022-08-01T07:28:02;4.07;;;3.42;;
14516;SDS011;7344;50.864;4.362;2022-08-01T07:30:28;5.35;;;4.32;;
14516;SDS011;7344;50.864;4.362;2022-08-01T07:32:54;3.28;;;2.97;;
14516;SDS011;7344;50.864;4.362;2022-08-01T07:35:19;4.07;;;3.65;;
14516;SDS011;7344;50.864;4.362;2022-08-01T07:37:45;4.90;;;4.38;;
14516;SDS011;7344;50.864;4.362;2022-08-01T07:40:11;2.97;;;2.78;;
14516;SDS011;7344;50.864;4.362;2022-08-01T07:42:36;2.90;;;2.70;;
14516;SDS011;7344;50.864;4.362;2022-08-01T07:45:02;2.47;;;2.05;;
14516;SDS011;7344;50.864;4.362;2022-08-01T07:47:28;2.00;;;1.90;;
14516;SDS011;7344;50.864;4.362;2022-08-01T07:50:04;2.78;;;1.67;;
14516;SDS011;7344;50.864;4.362;2022-08-01T07:52:31;2.22;;;1.63;;
14516;SDS011;7344;50.864;4.362;2022-08-01T07:54:57;1.98;;;1.88;;
14516;SDS011;7344;50.864;4.362;2022-08-01T07:57:23;2.55;;;1.80;;
14516;SDS011;7344;50.864;4.362;2022-08-01T07:59:50;2.22;;;1.67;;
14516;SDS011;7344;50.864;4.362;2022-08-01T08:02:16;2.00;;;1.90;;
14516;SDS011;7344;50.864;4.362;2022-08-01T08:04:41;4.43;;;2.30;;
14516;SDS011;7344;50.864;4.362;2022-08-01T08:07:07;2.85;;;2.50;;
14516;SDS011;7344;50.864;4.362;2022-08-01T08:09:33;2.80;;;2.00;;
14516;SDS011;7344;50.864;4.362;2022-08-01T08:11:58;2.83;;;2.63;;
14516;SDS011;7344;50.864;4.362;2022-08-01T08:14:24;6.60;;;2.72;;
14516;SDS011;7344;50.864;4.362;2022-08-01T08:16:50;2.58;;;2.38;;
14516;SDS011;7344;50.864;4.362;2022-08-01T08:19:16;2.78;;;2.53;;
14516;SDS011;7344;50.864;4.362;2022-08-01T08:21:42;2.70;;;2.33;;
14516;SDS011;7344;50.864;4.362;2022-08-01T08:24:08;2.92;;;2.10;;
14516;SDS011;7344;50.864;4.362;2022-08-01T08:26:50;2.00;;;1.80;;
14516;SDS011;7344;50.864;4.362;2022-08-01T08:29:18;2.30;;;2.10;;
14516;SDS011;7344;50.864;4.362;2022-08-01T08:31:44;2.38;;;2.15;;
14516;SDS011;7344;50.864;4.362;2022-08-01T08:34:10;3.60;;;2.10;;
14516;SDS011;7344;50.864;4.362;2022-08-01T08:36:37;2.75;;;1.90;;
14516;SDS011;7344;50.864;4.362;2022-08-01T08:39:03;1.85;;;1.45;;
14516;SDS011;7344;50.864;4.362;2022-08-01T08:41:30;1.60;;;1.50;;
14516;SDS011;7344;50.864;4.362;2022-08-01T08:44:02;1.73;;;1.60;;
14516;SDS011;7344;50.864;4.362;2022-08-01T08:46:32;1.38;;;1.38;;
14516;SDS011;7344;50.864;4.362;2022-08-01T08:48:59;3.75;;;1.40;;
14516;SDS011;7344;50.864;4.362;2022-08-01T08:51:26;1.40;;;1.30;;
14516;SDS011;7344;50.864;4.362;2022-08-01T08:53:55;1.65;;;1.55;;
14516;SDS011;7344;50.864;4.362;2022-08-01T08:56:23;2.88;;;1.40;;
14516;SDS011;7344;50.864;4.362;2022-08-01T08:58:50;2.42;;;1.95;;
14516;SDS011;7344;50.864;4.362;2022-08-01T09:01:16;1.70;;;1.60;;
14516;SDS011;7344;50.864;4.362;2022-08-01T09:03:42;1.30;;;1.30;;
14516;SDS011;7344;50.864;4.362;2022-08-01T09:06:09;2.70;;;1.63;;
14516;SDS011;7344;50.864;4.362;2022-08-01T09:08:35;4.65;;;2.15;;
14516;SDS011;7344;50.864;4.362;2022-08-01T09:11:01;1.80;;;1.70;;
14516;SDS011;7344;50.864;4.362;2022-08-01T09:13:27;2.13;;;1.60;;
14516;SDS011;7344;50.864;4.362;2022-08-01T09:15:53;2.10;;;1.90;;
14516;SDS011;7344;50.864;4.362;2022-08-01T09:18:25;3.00;;;2.10;;
14516;SDS011;7344;50.864;4.362;2022-08-01T09:21:06;3.38;;;2.67;;
14516;SDS011;7344;50.864;4.362;2022-08-01T09:23:41;2.95;;;2.50;;
14516;SDS011;7344;50.864;4.362;2022-08-01T09:26:08;2.28;;;1.60;;
14516;SDS011;7344;50.864;4.362;2022-08-01T09:28:34;1.77;;;1.67;;
14516;SDS011;7344;50.864;4.362;2022-08-01T09:31:05;2.90;;;1.75;;
14516;SDS011;7344;50.864;4.362;2022-08-01T09:33:55;1.77;;;1.40;;
14516;SDS011;7344;50.864;4.362;2022-08-01T09:36:26;3.85;;;1.88;;
14516;SDS011;7344;50.864;4.362;2022-08-01T09:39:11;3.22;;;1.30;;
14516;SDS011;7344;50.864;4.362;2022-08-01T09:41:38;3.65;;;1.23;;
14516;SDS011;7344;50.864;4.362;2022-08-01T09:44:04;1.08;;;1.00;;
14516;SDS011;7344;50.864;4.362;2022-08-01T09:46:30;2.25;;;1.17;;
14516;SDS011;7344;50.864;4.362;2022-08-01T09:48:56;1.25;;;1.15;;
14516;SDS011;7344;50.864;4.362;2022-08-01T09:51:30;3.05;;;1.42;;
14516;SDS011;7344;50.864;4.362;2022-08-01T09:54:03;1.40;;;1.30;;
14516;SDS011;7344;50.864;4.362;2022-08-01T09:56:42;1.20;;;1.10;;
14516;SDS011;7344;50.864;4.362;2022-08-01T09:59:08;1.65;;;1.50;;
14516;SDS011;7344;50.864;4.362;2022-08-01T10:01:47;1.73;;;0.90;;
14516;SDS011;7344;50.864;4.362;2022-08-01T10:04:17;1.38;;;0.65;;
14516;SDS011;7344;50.864;4.362;2022-08-01T10:06:45;1.20;;;1.00;;
14516;SDS011;7344;50.864;4.362;2022-08-01T10:09:25;1.45;;;1.00;;
14516;SDS011;7344;50.864;4.362;2022-08-01T10:11:56;1.55;;;1.20;;
14516;SDS011;7344;50.864;4.362;2022-08-01T10:14:24;1.65;;;0.80;;
14516;SDS011;7344;50.864;4.362;2022-08-01T10:16:51;2.72;;;1.40;;
14516;SDS011;7344;50.864;4.362;2022-08-01T10:19:18;1.38;;;1.05;;
14516;SDS011;7344;50.864;4.362;2022-08-01T10:21:46;1.23;;;1.17;;
14516;SDS011;7344;50.864;4.362;2022-08-01T10:24:15;3.17;;;1.40;;
14516;SDS011;7344;50.864;4.362;2022-08-01T10:26:43;1.13;;;1.08;;
14516;SDS011;7344;50.864;4.362;2022-08-01T10:29:12;0.80;;;0.80;;
14516;SDS011;7344;50.864;4.362;2022-08-01T10:31:38;1.08;;;1.00;;
14516;SDS011;7344;50.864;4.362;2022-08-01T10:34:04;1.15;;;1.10;;
14516;SDS011;7344;50.864;4.362;2022-08-01T10:36:30;1.45;;;1.35;;
14516;SDS011;7344;50.864;4.362;2022-08-01T10:38:57;1.65;;;1.10;;
14516;SDS011;7344;50.864;4.362;2022-08-01T10:41:23;2.15;;;1.27;;
14516;SDS011;7344;50.864;4.362;2022-08-01T10:43:50;0.90;;;0.90;;
14516;SDS011;7344;50.864;4.362;2022-08-01T10:46:17;0.80;;;0.80;;
14516;SDS011;7344;50.864;4.362;2022-08-01T10:48:47;1.20;;;1.20;;
14516;SDS011;7344;50.864;4.362;2022-08-01T10:51:19;0.95;;;0.95;;
14516;SDS011;7344;50.864;4.362;2022-08-01T10:53:47;1.20;;;1.10;;
14516;SDS011;7344;50.864;4.362;2022-08-01T10:56:15;3.17;;;1.58;;
14516;SDS011;7344;50.864;4.362;2022-08-01T10:58:42;1.63;;;1.35;;
14516;SDS011;7344;50.864;4.362;2022-08-01T11:01:16;1.20;;;1.10;;
14516;SDS011;7344;50.864;4.362;2022-08-01T11:04:06;0.80;;;0.80;;
14516;SDS011;7344;50.864;4.362;2022-08-01T11:09:02;1.17;;;0.80;;
14516;SDS011;7344;50.864;4.362;2022-08-01T11:11:30;3.60;;;1.13;;
14516;SDS011;7344;50.864;4.362;2022-08-01T11:14:05;1.40;;;1.30;;
14516;SDS011;7344;50.864;4.362;2022-08-01T11:16:38;3.92;;;1.60;;
14516;SDS011;7344;50.864;4.362;2022-08-01T11:19:05;5.75;;;1.70;;
14516;SDS011;7344;50.864;4.362;2022-08-01T11:27:17;0.70;;;0.70;;
14516;SDS011;7344;50.864;4.362;2022-08-01T11:32:47;1.45;;;0.98;;
14516;SDS011;7344;50.864;4.362;2022-08-01T11:35:14;3.50;;;0.70;;
14516;SDS011;7344;50.864;4.362;2022-08-01T11:37:40;2.42;;;1.00;;
14516;SDS011;7344;50.864;4.362;2022-08-01T11:40:27;2.63;;;0.75;;
14516;SDS011;7344;50.864;4.362;2022-08-01T11:45:53;3.85;;;1.27;;
14516;SDS011;7344;50.864;4.362;2022-08-01T11:48:24;1.98;;;0.90;;
14516;SDS011;7344;50.864;4.362;2022-08-01T11:50:54;2.38;;;1.50;;
14516;SDS011;7344;50.864;4.362;2022-08-01T11:53:21;2.28;;;1.17;;
14516;SDS011;7344;50.864;4.362;2022-08-01T11:55:51;1.88;;;1.00;;
14516;SDS011;7344;50.864;4.362;2022-08-01T11:58:24;2.80;;;1.20;;
14516;SDS011;7344;50.864;4.362;2022-08-01T12:03:24;2.30;;;1.30;;
14516;SDS011;7344;50.864;4.362;2022-08-01T12:05:52;0.77;;;0.70;;
14516;SDS011;7344;50.864;4.362;2022-08-01T12:08:25;1.08;;;1.05;;
14516;SDS011;7344;50.864;4.362;2022-08-01T12:10:52;1.75;;;0.90;;
14516;SDS011;7344;50.864;4.362;2022-08-01T12:13:18;1.63;;;1.13;;
14516;SDS011;7344;50.864;4.362;2022-08-01T12:15:44;1.27;;;0.80;;
14516;SDS011;7344;50.864;4.362;2022-08-01T12:18:10;0.95;;;0.85;;
14516;SDS011;7344;50.864;4.362;2022-08-01T12:20:40;1.10;;;1.10;;
14516;SDS011;7344;50.864;4.362;2022-08-01T12:23:09;1.83;;;1.38;;
14516;SDS011;7344;50.864;4.362;2022-08-01T12:25:40;2.17;;;1.30;;
14516;SDS011;7344;50.864;4.362;2022-08-01T12:28:08;2.42;;;1.23;;
14516;SDS011;7344;50.864;4.362;2022-08-01T12:30:36;2.00;;;1.35;;
14516;SDS011;7344;50.864;4.362;2022-08-01T12:33:11;1.55;;;1.20;;
14516;SDS011;7344;50.864;4.362;2022-08-01T12:35:43;1.92;;;1.25;;
14516;SDS011;7344;50.864;4.362;2022-08-01T12:38:16;1.50;;;1.23;;
14516;SDS011;7344;50.864;4.362;2022-08-01T12:40:43;4.68;;;2.63;;
14516;SDS011;7344;50.864;4.362;2022-08-01T12:43:15;2.10;;;1.27;;
14516;SDS011;7344;50.864;4.362;2022-08-01T12:45:43;3.58;;;1.50;;
14516;SDS011;7344;50.864;4.362;2022-08-01T12:48:11;8.65;;;1.20;;
14516;SDS011;7344;50.864;4.362;2022-08-01T12:50:38;2.03;;;1.80;;
14516;SDS011;7344;50.864;4.362;2022-08-01T12:53:08;1.60;;;1.30;;
14516;SDS011;7344;50.864;4.362;2022-08-01T12:55:43;1.20;;;1.10;;
14516;SDS011;7344;50.864;4.362;2022-08-01T12:58:13;1.30;;;1.13;;
14516;SDS011;7344;50.864;4.362;2022-08-01T13:00:40;1.40;;;1.30;;
14516;SDS011;7344;50.864;4.362;2022-08-01T13:03:09;2.28;;;1.10;;
14516;SDS011;7344;50.864;4.362;2022-08-01T13:05:51;2.05;;;1.50;;
14516;SDS011;7344;50.864;4.362;2022-08-01T13:08:22;3.10;;;1.35;;
14516;SDS011;7344;50.864;4.362;2022-08-01T13:10:50;2.13;;;1.50;;
14516;SDS011;7344;50.864;4.362;2022-08-01T13:13:24;2.10;;;1.40;;
14516;SDS011;7344;50.864;4.362;2022-08-01T13:16:05;2.00;;;1.60;;
14516;SDS011;7344;50.864;4.362;2022-08-01T13:18:32;2.80;;;1.65;;
14516;SDS011;7344;50.864;4.362;2022-08-01T13:23:37;3.20;;;1.73;;
14516;SDS011;7344;50.864;4.362;2022-08-01T13:26:03;1.52;;;1.40;;
14516;SDS011;7344;50.864;4.362;2022-08-01T13:28:30;3.70;;;1.38;;
14516;SDS011;7344;50.864;4.362;2022-08-01T13:33:44;2.08;;;1.20;;
14516;SDS011;7344;50.864;4.362;2022-08-01T13:36:12;5.30;;;1.80;;
14516;SDS011;7344;50.864;4.362;2022-08-01T13:38:39;3.58;;;1.30;;
14516;SDS011;7344;50.864;4.362;2022-08-01T13:41:24;3.30;;;1.80;;
14516;SDS011;7344;50.864;4.362;2022-08-01T13:43:50;3.03;;;2.30;;
14516;SDS011;7344;50.864;4.362;2022-08-01T13:46:16;2.42;;;2.10;;
14516;SDS011;7344;50.864;4.362;2022-08-01T13:48:42;2.80;;;1.63;;
14516;SDS011;7344;50.864;4.362;2022-08-01T13:51:07;1.50;;;1.40;;
14516;SDS011;7344;50.864;4.362;2022-08-01T13:53:33;2.00;;;1.70;;
14516;SDS011;7344;50.864;4.362;2022-08-01T13:55:59;1.98;;;1.30;;
14516;SDS011;7344;50.864;4.362;2022-08-01T13:58:24;1.48;;;1.27;;
14516;SDS011;7344;50.864;4.362;2022-08-01T14:00:50;2.42;;;1.33;;
14516;SDS011;7344;50.864;4.362;2022-08-01T14:03:16;2.13;;;1.48;;
14516;SDS011;7344;50.864;4.362;2022-08-01T14:05:42;2.17;;;1.42;;
14516;SDS011;7344;50.864;4.362;2022-08-01T14:08:08;3.35;;;1.30;;
14516;SDS011;7344;50.864;4.362;2022-08-01T14:10:34;1.40;;;1.30;;
14516;SDS011;7344;50.864;4.362;2022-08-01T14:12:59;1.98;;;1.60;;
14516;SDS011;7344;50.864;4.362;2022-08-01T14:15:25;2.55;;;1.67;;
14516;SDS011;7344;50.864;4.362;2022-08-01T14:17:51;5.00;;;1.45;;
14516;SDS011;7344;50.864;4.362;2022-08-01T14:20:17;1.30;;;1.20;;
14516;SDS011;7344;50.864;4.362;2022-08-01T14:22:45;2.22;;;1.13;;
14516;SDS011;7344;50.864;4.362;2022-08-01T14:25:11;1.60;;;1.20;;
14516;SDS011;7344;50.864;4.362;2022-08-01T14:27:37;2.08;;;1.27;;
14516;SDS011;7344;50.864;4.362;2022-08-01T14:30:04;1.20;;;1.10;;
14516;SDS011;7344;50.864;4.362;2022-08-01T14:32:31;2.80;;;1.38;;
14516;SDS011;7344;50.864;4.362;2022-08-01T14:34:58;3.28;;;1.73;;
14516;SDS011;7344;50.864;4.362;2022-08-01T14:37:24;3.20;;;1.27;;
14516;SDS011;7344;50.864;4.362;2022-08-01T14:39:49;2.00;;;1.70;;
14516;SDS011;7344;50.864;4.362;2022-08-01T14:42:15;2.63;;;1.60;;
14516;SDS011;7344;50.864;4.362;2022-08-01T14:44:41;1.48;;;1.38;;
14516;SDS011;7344;50.864;4.362;2022-08-01T14:47:06;2.28;;;1.38;;
14516;SDS011;7344;50.864;4.362;2022-08-01T14:49:32;1.58;;;1.35;;
14516;SDS011;7344;50.864;4.362;2022-08-01T14:51:57;3.22;;;1.10;;
14516;SDS011;7344;50.864;4.362;2022-08-01T14:54:23;1.52;;;1.25;;
14516;SDS011;7344;50.864;4.362;2022-08-01T14:56:48;4.82;;;1.63;;
14516;SDS011;7344;50.864;4.362;2022-08-01T14:59:14;1.58;;;1.15;;
14516;SDS011;7344;50.864;4.362;2022-08-01T15:01:40;1.23;;;1.13;;
14516;SDS011;7344;50.864;4.362;2022-08-01T15:04:05;1.13;;;1.02;;
14516;SDS011;7344;50.864;4.362;2022-08-01T15:06:31;3.35;;;1.52;;
14516;SDS011;7344;50.864;4.362;2022-08-01T15:08:57;3.10;;;1.50;;
14516;SDS011;7344;50.864;4.362;2022-08-01T15:11:22;3.80;;;1.20;;
14516;SDS011;7344;50.864;4.362;2022-08-01T15:13:49;3.75;;;1.27;;
14516;SDS011;7344;50.864;4.362;2022-08-01T15:16:34;4.03;;;1.40;;
14516;SDS011;7344;50.864;4.362;2022-08-01T15:19:00;1.45;;;1.13;;
14516;SDS011;7344;50.864;4.362;2022-08-01T15:21:26;2.50;;;1.38;;
14516;SDS011;7344;50.864;4.362;2022-08-01T15:23:51;1.77;;;1.15;;
14516;SDS011;7344;50.864;4.362;2022-08-01T15:26:17;2.22;;;1.10;;
14516;SDS011;7344;50.864;4.362;2022-08-01T15:28:43;1.85;;;1.30;;
14516;SDS011;7344;50.864;4.362;2022-08-01T15:31:08;2.08;;;1.50;;
14516;SDS011;7344;50.864;4.362;2022-08-01T15:33:34;1.50;;;1.40;;